Time;durP1;ratioP1;P1;durP2;ratioP2;P2;SDS_P1;SDS_P2;PMS_P1;PMS_P2;Temp;Humidity;BMP_temperature;BMP_pressure;BME280_temperature;BME280_humidity;BME280_pressure;Samples;Min_cycle;Max_cycle;Signal;HPM_P1;HPM_P2
2023/07/30 00:00:51;;;;;;;9.55;4.45;;;15.60;99.90;;;;;;4904659;29;20043;-34
2023/07/30 00:03:16;;;;;;;9.90;4.88;;;15.60;99.90;;;;;;4912749;29;20486;-34
2023/07/30 00:05:42;;;;;;;8.10;5.03;;;15.60;99.90;;;;;;4899838;29;20047;-33
2023/07/30 00:08:08;;;;;;;10.50;4.57;;;15.60;99.90;;;;;;4912736;29;20455;-34
2023/07/30 00:10:35;;;;;;;9.23;4.95;;;15.60;99.90;;;;;;4913067;29;20130;-33
2023/07/30 00:13:01;;;;;;;11.50;4.68;;;15.60;99.90;;;;;;4910764;29;20096;-34
2023/07/30 00:15:27;;;;;;;7.65;4.72;;;15.50;99.90;;;;;;4920543;29;20162;-34
2023/07/30 00:17:52;;;;;;;7.57;4.53;;;15.50;99.90;;;;;;4887322;29;20040;-34
2023/07/30 00:20:18;;;;;;;9.60;5.15;;;15.50;99.90;;;;;;4922646;29;20511;-33
2023/07/30 00:22:44;;;;;;;12.20;5.30;;;15.50;99.90;;;;;;4913942;29;20044;-33
2023/07/30 00:25:09;;;;;;;12.43;4.85;;;15.40;99.90;;;;;;4908704;29;20507;-32
2023/07/30 00:27:35;;;;;;;11.52;5.03;;;15.40;99.90;;;;;;4909978;29;20044;-34
2023/07/30 00:30:01;;;;;;;9.85;4.75;;;15.40;99.90;;;;;;4920811;29;20073;-34
2023/07/30 00:32:26;;;;;;;13.65;5.35;;;15.30;99.90;;;;;;4910163;29;20036;-34
2023/07/30 00:34:52;;;;;;;11.32;5.00;;;15.30;99.90;;;;;;4919686;29;20048;-33
2023/07/30 00:37:18;;;;;;;10.10;5.10;;;15.30;99.90;;;;;;4919433;29;20397;-33
2023/07/30 00:39:43;;;;;;;9.43;4.82;;;15.30;99.90;;;;;;4920380;29;20097;-34
2023/07/30 00:42:09;;;;;;;8.70;4.70;;;15.20;99.90;;;;;;4917969;29;20509;-34
2023/07/30 00:44:35;;;;;;;10.02;5.28;;;15.20;99.90;;;;;;4915581;29;20785;-33
2023/07/30 00:47:01;;;;;;;10.35;5.20;;;15.20;99.90;;;;;;4922386;29;20513;-33
2023/07/30 00:49:27;;;;;;;11.77;5.45;;;15.20;99.90;;;;;;4919628;29;20426;-33
2023/07/30 00:51:55;;;;;;;8.68;4.97;;;15.20;99.90;;;;;;4910829;29;20122;-33
2023/07/30 00:54:22;;;;;;;10.75;5.20;;;15.10;99.90;;;;;;4903510;29;20048;-34
2023/07/30 00:56:52;;;;;;;8.18;4.90;;;15.10;99.90;;;;;;4917102;29;20087;-34
2023/07/30 00:59:19;;;;;;;10.32;5.03;;;15.10;99.90;;;;;;4922615;29;20527;-34
2023/07/30 01:01:47;;;;;;;9.25;4.75;;;15.00;99.90;;;;;;4913727;29;20126;-35
2023/07/30 01:04:16;;;;;;;12.63;4.72;;;15.00;99.90;;;;;;4921525;29;20125;-35
2023/07/30 01:06:43;;;;;;;12.65;5.18;;;15.00;99.90;;;;;;4907422;29;20127;-34
2023/07/30 01:09:09;;;;;;;8.63;4.88;;;15.00;99.90;;;;;;4914113;29;20040;-34
2023/07/30 01:11:37;;;;;;;9.68;4.70;;;15.00;99.90;;;;;;4914959;29;20050;-35
2023/07/30 01:14:05;;;;;;;11.15;5.00;;;14.90;99.90;;;;;;4914290;29;20047;-34
2023/07/30 01:16:31;;;;;;;14.77;5.60;;;14.90;99.90;;;;;;4914372;29;20044;-35
2023/07/30 01:18:58;;;;;;;10.50;5.28;;;14.90;99.90;;;;;;4917882;29;20036;-34
2023/07/30 01:21:24;;;;;;;8.48;4.85;;;14.90;99.90;;;;;;4911378;29;20051;-35
2023/07/30 01:23:50;;;;;;;13.35;5.35;;;14.90;99.90;;;;;;4909257;29;20398;-34
2023/07/30 01:26:23;;;;;;;10.25;5.22;;;14.80;99.90;;;;;;4904694;29;20112;-35
2023/07/30 01:28:54;;;;;;;9.95;4.38;;;14.80;99.90;;;;;;4910204;29;20037;-35
2023/07/30 01:31:21;;;;;;;14.20;4.75;;;14.80;99.90;;;;;;4914632;29;20064;-35
2023/07/30 01:33:52;;;;;;;12.52;5.07;;;14.80;99.90;;;;;;4915359;29;20402;-35
2023/07/30 01:36:20;;;;;;;10.20;4.53;;;14.80;99.90;;;;;;4913070;29;20040;-35
2023/07/30 01:38:47;;;;;;;13.02;4.47;;;14.70;99.90;;;;;;4915300;29;20049;-35
2023/07/30 01:41:13;;;;;;;8.00;4.75;;;14.70;99.90;;;;;;4903890;29;20040;-35
2023/07/30 01:43:39;;;;;;;12.38;4.40;;;14.70;99.90;;;;;;4909823;29;20413;-34
2023/07/30 01:46:04;;;;;;;12.05;5.18;;;14.70;99.90;;;;;;4909074;29;20121;-34
2023/07/30 01:48:30;;;;;;;10.15;4.65;;;14.70;99.90;;;;;;4894588;29;20052;-35
2023/07/30 01:50:56;;;;;;;12.48;5.10;;;14.70;99.90;;;;;;4909687;29;20127;-34
2023/07/30 01:53:21;;;;;;;7.50;4.20;;;14.70;99.90;;;;;;4920166;29;20126;-34
2023/07/30 01:55:47;;;;;;;10.95;4.00;;;14.60;99.90;;;;;;4915800;29;20084;-34
2023/07/30 01:58:13;;;;;;;10.75;4.50;;;14.60;99.90;;;;;;4914340;29;20036;-34
2023/07/30 02:00:40;;;;;;;9.30;4.38;;;14.60;99.90;;;;;;4914405;29;20126;-34
2023/07/30 02:03:06;;;;;;;9.38;4.45;;;14.60;99.90;;;;;;4920741;29;20048;-34
2023/07/30 02:05:32;;;;;;;10.45;4.53;;;14.60;99.90;;;;;;4916544;29;20088;-34
2023/07/30 02:07:58;;;;;;;9.68;4.40;;;14.50;99.90;;;;;;4914197;29;20047;-34
2023/07/30 02:10:26;;;;;;;12.57;5.18;;;14.60;99.90;;;;;;4924894;29;20181;-34
2023/07/30 02:12:52;;;;;;;9.43;4.45;;;14.50;99.90;;;;;;4914672;29;20051;-34
2023/07/30 02:15:18;;;;;;;12.65;4.80;;;14.50;99.90;;;;;;4898537;29;20041;-34
2023/07/30 02:17:43;;;;;;;13.00;5.00;;;14.50;99.90;;;;;;4908964;29;20106;-34
2023/07/30 02:20:09;;;;;;;9.60;4.53;;;14.50;99.90;;;;;;4896826;29;20036;-34
2023/07/30 02:22:35;;;;;;;10.85;4.55;;;14.50;99.90;;;;;;4913745;29;20442;-36
2023/07/30 02:25:01;;;;;;;13.63;4.60;;;14.40;99.90;;;;;;4917261;29;20531;-34
2023/07/30 02:27:26;;;;;;;8.57;4.90;;;14.40;99.90;;;;;;4924507;29;20075;-32
2023/07/30 02:29:52;;;;;;;8.77;4.22;;;14.40;99.90;;;;;;4910399;29;20268;-35
2023/07/30 02:32:18;;;;;;;9.02;4.60;;;14.40;99.90;;;;;;4922466;29;20478;-33
2023/07/30 02:34:43;;;;;;;11.75;5.00;;;14.40;99.90;;;;;;4914749;29;20509;-33
2023/07/30 02:37:09;;;;;;;8.07;4.50;;;14.40;99.90;;;;;;4907407;29;20036;-33
2023/07/30 02:39:35;;;;;;;10.20;3.88;;;14.30;99.90;;;;;;4910566;29;20047;-33
2023/07/30 02:42:00;;;;;;;7.95;3.95;;;14.30;99.90;;;;;;4905729;29;20598;-33
2023/07/30 02:44:26;;;;;;;8.27;4.38;;;14.30;99.90;;;;;;4909859;29;20043;-33
2023/07/30 02:46:52;;;;;;;10.27;4.40;;;14.30;99.90;;;;;;4911121;29;20036;-33
2023/07/30 02:49:17;;;;;;;9.05;4.18;;;14.30;99.90;;;;;;4916443;29;20176;-33
2023/07/30 02:51:48;;;;;;;8.75;4.13;;;14.30;99.90;;;;;;4902075;29;20040;-34
2023/07/30 02:54:14;;;;;;;9.05;4.28;;;14.40;99.90;;;;;;4918395;29;20052;-33
2023/07/30 02:56:40;;;;;;;10.57;4.65;;;14.30;99.90;;;;;;4917071;29;20047;-33
2023/07/30 02:59:05;;;;;;;8.73;3.88;;;14.40;99.90;;;;;;4913999;29;20036;-33
2023/07/30 03:01:32;;;;;;;8.90;4.22;;;14.30;99.90;;;;;;4915603;29;20050;-33
2023/07/30 03:03:57;;;;;;;9.60;3.80;;;14.40;99.90;;;;;;4913699;29;20624;-33
2023/07/30 03:06:23;;;;;;;7.65;3.60;;;14.40;99.90;;;;;;4919394;29;20044;-33
2023/07/30 03:08:49;;;;;;;5.90;3.67;;;14.40;99.90;;;;;;4906139;29;21717;-33
2023/07/30 03:11:15;;;;;;;7.18;3.78;;;14.40;99.90;;;;;;4910166;29;20042;-33
2023/07/30 03:13:40;;;;;;;10.23;3.92;;;14.40;99.90;;;;;;4904262;29;20040;-33
2023/07/30 03:16:06;;;;;;;6.80;3.95;;;14.40;99.90;;;;;;4911229;29;20040;-33
2023/07/30 03:18:32;;;;;;;7.57;4.03;;;14.40;99.90;;;;;;4909762;29;20525;-34
2023/07/30 03:21:01;;;;;;;8.02;4.00;;;14.40;99.90;;;;;;4904774;29;20075;-33
2023/07/30 03:23:27;;;;;;;9.05;3.70;;;14.40;99.90;;;;;;4888670;29;20123;-33
2023/07/30 03:25:53;;;;;;;7.30;3.45;;;14.40;99.90;;;;;;4901571;29;20467;-33
2023/07/30 03:28:19;;;;;;;10.43;3.97;;;14.30;99.90;;;;;;4912937;29;20123;-33
2023/07/30 03:30:44;;;;;;;7.95;3.95;;;14.40;99.90;;;;;;4912401;29;20048;-33
2023/07/30 03:33:10;;;;;;;11.43;3.90;;;14.30;99.90;;;;;;4911897;29;20044;-34
2023/07/30 03:35:36;;;;;;;8.77;4.03;;;14.40;99.90;;;;;;4902257;29;20044;-34
2023/07/30 03:38:01;;;;;;;9.50;4.65;;;14.30;99.90;;;;;;4902276;29;20051;-34
2023/07/30 03:40:28;;;;;;;7.30;4.07;;;14.40;99.90;;;;;;4913048;29;20071;-34
2023/07/30 03:42:54;;;;;;;11.43;4.07;;;14.30;99.90;;;;;;4894974;29;20044;-34
2023/07/30 03:45:20;;;;;;;9.05;4.43;;;14.30;99.90;;;;;;4908270;29;20040;-34
2023/07/30 03:47:45;;;;;;;12.13;4.32;;;14.30;99.90;;;;;;4912446;29;20084;-34
2023/07/30 03:50:11;;;;;;;9.63;4.28;;;14.30;99.90;;;;;;4909570;29;20040;-34
2023/07/30 03:52:37;;;;;;;9.02;4.57;;;14.30;99.90;;;;;;4899994;29;20055;-34
2023/07/30 03:55:03;;;;;;;16.00;4.50;;;14.30;99.90;;;;;;4912096;29;20040;-34
2023/07/30 03:57:29;;;;;;;8.35;4.35;;;14.30;99.90;;;;;;4906196;29;20399;-34
2023/07/30 03:59:54;;;;;;;8.77;4.25;;;14.30;99.90;;;;;;4915283;29;20046;-34
2023/07/30 04:02:20;;;;;;;11.32;4.72;;;14.30;99.90;;;;;;4921371;29;20072;-34
2023/07/30 04:04:48;;;;;;;8.32;4.13;;;14.30;99.90;;;;;;4917768;29;20493;-34
2023/07/30 04:07:14;;;;;;;11.52;4.25;;;14.30;99.90;;;;;;4911177;29;20039;-34
2023/07/30 04:09:40;;;;;;;8.73;4.57;;;14.30;99.90;;;;;;4904388;29;20502;-34
2023/07/30 04:12:06;;;;;;;10.57;5.13;;;14.30;99.90;;;;;;4915970;29;20032;-34
2023/07/30 04:14:31;;;;;;;9.57;4.40;;;14.30;99.90;;;;;;4915944;29;20048;-33
2023/07/30 04:16:57;;;;;;;11.20;4.90;;;14.30;99.90;;;;;;4906655;29;20047;-33
2023/07/30 04:19:23;;;;;;;13.38;5.15;;;14.30;99.90;;;;;;4936560;29;20398;-32
2023/07/30 04:21:49;;;;;;;10.30;4.55;;;14.40;99.90;;;;;;4936701;29;20091;-33
2023/07/30 04:24:14;;;;;;;9.23;4.90;;;14.40;99.90;;;;;;4936799;29;20050;-32
2023/07/30 04:26:40;;;;;;;12.25;5.22;;;14.40;99.90;;;;;;4919156;29;20516;-32
2023/07/30 04:29:06;;;;;;;11.57;4.82;;;14.40;99.90;;;;;;4919506;29;20072;-32
2023/07/30 04:31:32;;;;;;;8.00;4.82;;;14.40;99.90;;;;;;4936047;29;20301;-32
2023/07/30 04:34:00;;;;;;;11.40;4.90;;;14.40;99.90;;;;;;4936530;29;20119;-32
2023/07/30 04:36:26;;;;;;;13.98;4.93;;;14.40;99.90;;;;;;4935944;29;20529;-32
2023/07/30 04:38:52;;;;;;;9.88;5.13;;;14.50;99.90;;;;;;4936444;29;20039;-32
2023/07/30 04:41:18;;;;;;;10.25;4.93;;;14.50;99.90;;;;;;4936148;29;20035;-32
2023/07/30 04:43:44;;;;;;;9.30;4.55;;;14.50;99.90;;;;;;4935870;29;20509;-32
2023/07/30 04:46:09;;;;;;;11.55;6.18;;;14.50;99.90;;;;;;4935863;29;20043;-32
2023/07/30 04:48:37;;;;;;;12.50;4.68;;;14.60;99.90;;;;;;4935815;29;20126;-32
2023/07/30 04:51:03;;;;;;;11.25;5.22;;;14.60;99.90;;;;;;4935636;29;20048;-32
2023/07/30 04:53:29;;;;;;;9.55;5.30;;;14.60;99.90;;;;;;4935735;29;20094;-32
2023/07/30 04:55:58;;;;;;;9.68;6.35;;;14.70;99.90;;;;;;4935746;29;20046;-32
2023/07/30 04:58:24;;;;;;;9.52;4.63;;;14.70;99.90;;;;;;4935596;29;20039;-32
2023/07/30 05:00:50;;;;;;;10.98;5.30;;;14.70;99.90;;;;;;4935610;29;20040;-33
2023/07/30 05:03:16;;;;;;;10.77;5.10;;;14.80;99.90;;;;;;4935271;29;20081;-33
2023/07/30 05:05:42;;;;;;;11.55;5.10;;;14.80;99.90;;;;;;4935330;29;20469;-32
2023/07/30 05:08:08;;;;;;;11.23;5.03;;;14.80;99.90;;;;;;4935684;29;20079;-32
2023/07/30 05:10:33;;;;;;;13.55;4.95;;;14.90;99.90;;;;;;4935526;29;20130;-32
2023/07/30 05:12:59;;;;;;;12.73;5.32;;;15.00;99.90;;;;;;4935240;29;20039;-32
2023/07/30 05:15:26;;;;;;;10.98;5.10;;;15.00;99.90;;;;;;4935203;29;20051;-32
2023/07/30 05:17:51;;;;;;;10.52;4.85;;;15.00;99.90;;;;;;4935205;29;20043;-32
2023/07/30 05:20:17;;;;;;;11.52;5.10;;;15.10;99.90;;;;;;4934965;29;20040;-32
2023/07/30 05:22:42;;;;;;;11.27;4.97;;;15.10;99.90;;;;;;4935082;29;20517;-33
2023/07/30 05:25:08;;;;;;;12.88;4.93;;;15.20;99.90;;;;;;4935210;29;20051;-32
2023/07/30 05:27:36;;;;;;;10.07;4.60;;;15.20;99.90;;;;;;4935245;29;20047;-32
2023/07/30 05:30:01;;;;;;;13.65;4.90;;;15.20;99.90;;;;;;4935479;29;20092;-32
2023/07/30 05:32:27;;;;;;;9.85;4.57;;;15.30;99.90;;;;;;4926606;29;20040;-32
2023/07/30 05:34:53;;;;;;;14.48;5.13;;;15.30;99.90;;;;;;4916131;29;20040;-32
2023/07/30 05:37:18;;;;;;;11.23;5.40;;;15.40;99.90;;;;;;4898835;29;20483;-32
2023/07/30 05:39:44;;;;;;;15.52;5.45;;;15.50;99.90;;;;;;4916003;29;20040;-33
2023/07/30 05:42:10;;;;;;;12.93;5.10;;;15.50;99.90;;;;;;4915757;29;20040;-32
2023/07/30 05:44:36;;;;;;;9.77;4.90;;;15.60;99.90;;;;;;4915701;29;20048;-32
2023/07/30 05:47:01;;;;;;;14.05;5.15;;;15.60;99.90;;;;;;4899053;29;20040;-33
2023/07/30 05:49:27;;;;;;;12.95;5.22;;;15.70;99.90;;;;;;4926069;29;20050;-34
2023/07/30 05:51:53;;;;;;;16.73;6.65;;;15.70;99.90;;;;;;4898138;29;20072;-35
2023/07/30 05:54:18;;;;;;;10.85;5.38;;;15.80;99.90;;;;;;4890812;29;20139;-35
2023/07/30 05:56:44;;;;;;;10.90;5.43;;;15.80;99.90;;;;;;4912144;29;20043;-35
2023/07/30 05:59:10;;;;;;;15.63;5.80;;;15.90;99.90;;;;;;4916314;29;20032;-35
2023/07/30 06:01:35;;;;;;;14.88;5.75;;;15.90;99.90;;;;;;4914206;29;20055;-35
2023/07/30 06:04:01;;;;;;;11.75;4.85;;;16.00;99.90;;;;;;4906663;29;20040;-36
2023/07/30 06:06:27;;;;;;;13.00;5.60;;;16.10;99.90;;;;;;4913775;29;20059;-35
2023/07/30 06:08:54;;;;;;;13.82;5.90;;;16.10;99.90;;;;;;4908257;29;20397;-35
2023/07/30 06:11:19;;;;;;;15.82;5.93;;;16.20;99.90;;;;;;4912626;29;20039;-34
2023/07/30 06:13:45;;;;;;;18.92;5.95;;;16.30;99.90;;;;;;4909452;29;20399;-34
2023/07/30 06:16:11;;;;;;;15.02;5.57;;;16.40;99.90;;;;;;4913383;29;20096;-34
2023/07/30 06:18:37;;;;;;;18.95;5.65;;;16.40;99.90;;;;;;4912244;29;20106;-35
2023/07/30 06:21:05;;;;;;;14.43;5.80;;;16.50;99.90;;;;;;4910628;29;20042;-34
2023/07/30 06:23:31;;;;;;;18.83;5.85;;;16.50;99.90;;;;;;4913173;29;20040;-34
2023/07/30 06:25:57;;;;;;;16.25;6.20;;;16.60;99.90;;;;;;4910237;29;20045;-34
2023/07/30 06:28:23;;;;;;;13.10;6.15;;;16.70;99.90;;;;;;4905388;29;20036;-34
2023/07/30 06:30:49;;;;;;;17.95;5.55;;;16.70;99.90;;;;;;4913138;29;20055;-36
2023/07/30 06:33:15;;;;;;;18.65;5.97;;;16.80;99.90;;;;;;4880099;29;20056;-34
2023/07/30 06:35:41;;;;;;;14.52;5.18;;;16.90;99.90;;;;;;4912856;29;20041;-35
2023/07/30 06:38:08;;;;;;;15.48;5.95;;;16.90;99.90;;;;;;4923593;29;20111;-34
2023/07/30 06:40:34;;;;;;;18.50;6.70;;;17.00;99.90;;;;;;4905134;29;20436;-34
2023/07/30 06:43:00;;;;;;;14.88;6.13;;;17.10;99.90;;;;;;4908449;29;20173;-34
2023/07/30 06:45:26;;;;;;;16.20;6.53;;;17.10;99.90;;;;;;4907478;29;20172;-34
2023/07/30 06:47:52;;;;;;;15.82;5.80;;;17.20;99.90;;;;;;4911299;29;20119;-34
2023/07/30 06:50:17;;;;;;;14.80;5.53;;;17.30;99.90;;;;;;4897843;29;20092;-35
2023/07/30 06:52:43;;;;;;;15.38;6.20;;;17.30;99.90;;;;;;4889729;29;20561;-34
2023/07/30 06:55:09;;;;;;;15.43;6.32;;;17.40;99.90;;;;;;4903527;29;20048;-34
2023/07/30 06:57:35;;;;;;;14.98;6.57;;;17.40;99.90;;;;;;4916224;29;20123;-34
2023/07/30 07:00:01;;;;;;;15.25;6.68;;;17.40;99.90;;;;;;4883389;29;20040;-34
2023/07/30 07:02:26;;;;;;;23.88;6.38;;;17.50;99.90;;;;;;4911889;29;20043;-34
2023/07/30 07:04:54;;;;;;;15.43;6.38;;;17.50;99.90;;;;;;4917455;29;20044;-35
2023/07/30 07:07:20;;;;;;;13.07;5.88;;;17.60;99.90;;;;;;4907667;29;20377;-35
2023/07/30 07:09:46;;;;;;;15.48;6.35;;;17.70;99.90;;;;;;4905492;29;20052;-35
2023/07/30 07:12:12;;;;;;;13.63;5.80;;;17.90;99.90;;;;;;4905645;29;20354;-35
2023/07/30 07:14:39;;;;;;;13.88;6.88;;;18.00;99.90;;;;;;4907482;29;20048;-35
2023/07/30 07:17:04;;;;;;;18.38;5.47;;;18.10;99.90;;;;;;4900842;29;20040;-35
2023/07/30 07:19:31;;;;;;;13.00;6.20;;;18.20;99.90;;;;;;4909747;29;20410;-35
2023/07/30 07:21:56;;;;;;;15.13;5.22;;;18.20;99.90;;;;;;4903838;29;20064;-35
2023/07/30 07:24:22;;;;;;;17.52;6.30;;;18.20;99.90;;;;;;4900857;29;20067;-35
2023/07/30 07:26:48;;;;;;;15.98;5.88;;;18.40;99.90;;;;;;4914577;29;20036;-35
2023/07/30 07:29:14;;;;;;;14.23;5.60;;;18.40;99.90;;;;;;4910436;29;20064;-36
2023/07/30 07:31:39;;;;;;;13.60;5.60;;;18.30;99.90;;;;;;4911371;29;20077;-35
2023/07/30 07:34:05;;;;;;;17.00;5.78;;;18.20;99.90;;;;;;4919119;29;20074;-35
2023/07/30 07:36:31;;;;;;;19.98;5.72;;;18.10;99.90;;;;;;4916287;29;20040;-36
2023/07/30 07:38:56;;;;;;;18.35;7.13;;;18.10;99.90;;;;;;4907792;29;20029;-35
2023/07/30 07:41:22;;;;;;;13.68;5.53;;;18.00;99.90;;;;;;4915107;29;20040;-36
2023/07/30 07:43:48;;;;;;;17.58;6.35;;;18.00;99.90;;;;;;4898517;29;20036;-36
2023/07/30 07:46:14;;;;;;;16.75;6.65;;;18.00;99.90;;;;;;4914484;29;20436;-35
2023/07/30 07:48:41;;;;;;;16.05;7.47;;;18.00;99.90;;;;;;4896038;29;20140;-36
2023/07/30 07:51:09;;;;;;;16.60;6.85;;;18.20;99.90;;;;;;4912752;29;20048;-36
2023/07/30 07:53:34;;;;;;;14.50;6.60;;;18.50;99.90;;;;;;4914134;29;20119;-36
2023/07/30 07:56:00;;;;;;;15.63;7.15;;;18.80;99.90;;;;;;4914888;29;20553;-36
2023/07/30 07:58:26;;;;;;;17.70;6.90;;;19.20;99.90;;;;;;4916497;29;20032;-36
2023/07/30 08:00:55;;;;;;;14.73;6.32;;;19.40;99.90;;;;;;4912241;29;20139;-36
2023/07/30 08:03:21;;;;;;;20.58;6.18;;;19.60;99.90;;;;;;4916911;29;20513;-36
2023/07/30 08:05:48;;;;;;;15.55;6.25;;;19.60;99.90;;;;;;4906866;29;20040;-36
2023/07/30 08:08:14;;;;;;;16.08;6.75;;;19.70;99.90;;;;;;4907012;29;20037;-36
2023/07/30 08:10:43;;;;;;;15.82;7.18;;;20.00;99.90;;;;;;4911080;29;20036;-36
2023/07/30 08:13:10;;;;;;;12.25;6.13;;;20.20;99.90;;;;;;4912381;29;20124;-35
2023/07/30 08:15:36;;;;;;;12.88;5.82;;;20.40;99.90;;;;;;4912316;29;20052;-36
2023/07/30 08:18:02;;;;;;;13.35;5.72;;;20.50;99.90;;;;;;4912532;29;20040;-36
2023/07/30 08:20:27;;;;;;;13.10;5.90;;;20.50;99.90;;;;;;4887916;29;20048;-36
2023/07/30 08:22:53;;;;;;;17.95;6.03;;;20.60;99.90;;;;;;4903969;29;20067;-36
2023/07/30 08:25:19;;;;;;;12.57;5.13;;;20.90;99.90;;;;;;4897534;29;20045;-36
2023/07/30 08:27:45;;;;;;;13.63;5.15;;;21.10;99.90;;;;;;4885433;29;20048;-36
2023/07/30 08:30:12;;;;;;;12.05;4.75;;;21.20;99.90;;;;;;4912219;29;20147;-36
2023/07/30 08:32:38;;;;;;;11.80;4.90;;;21.10;99.90;;;;;;4911397;29;20494;-36
2023/07/30 08:35:04;;;;;;;12.45;4.10;;;21.20;99.90;;;;;;4912017;29;20052;-36
2023/07/30 08:37:30;;;;;;;11.73;4.25;;;21.30;99.90;;;;;;4909763;29;20093;-36
2023/07/30 08:39:56;;;;;;;10.75;4.60;;;21.40;99.90;;;;;;4907843;29;20037;-36
2023/07/30 08:42:22;;;;;;;11.05;4.10;;;21.50;99.90;;;;;;4915108;29;20542;-36
2023/07/30 08:44:48;;;;;;;11.23;4.60;;;21.70;99.90;;;;;;4915541;29;20085;-36
2023/07/30 08:47:14;;;;;;;9.73;4.10;;;21.70;99.90;;;;;;4919379;29;20236;-36
2023/07/30 08:49:42;;;;;;;12.85;4.28;;;21.70;99.90;;;;;;4898984;29;20115;-36
2023/07/30 08:52:09;;;;;;;10.95;4.38;;;21.40;99.90;;;;;;4912244;29;20040;-36
2023/07/30 08:54:37;;;;;;;12.05;4.80;;;21.20;99.90;;;;;;4882742;29;20685;-36
2023/07/30 08:57:03;;;;;;;11.80;4.15;;;21.00;99.90;;;;;;4911337;29;20044;-36
2023/07/30 08:59:42;;;;;;;12.90;5.28;;;21.10;99.90;;;;;;4915645;29;20067;-36
2023/07/30 09:02:14;;;;;;;10.35;4.75;;;21.10;99.90;;;;;;4914735;29;20056;-36
2023/07/30 09:04:42;;;;;;;11.77;5.03;;;21.00;99.90;;;;;;4897913;29;20051;-36
2023/07/30 09:07:11;;;;;;;13.60;5.55;;;20.90;99.90;;;;;;4898347;29;20051;-36
2023/07/30 09:09:38;;;;;;;11.93;5.28;;;20.80;99.90;;;;;;4897310;29;20043;-36
2023/07/30 09:12:12;;;;;;;10.88;5.53;;;20.70;99.90;;;;;;4919720;29;20532;-36
2023/07/30 09:14:39;;;;;;;12.43;5.95;;;20.70;99.90;;;;;;4911353;29;20410;-36
2023/07/30 09:17:04;;;;;;;14.38;5.45;;;20.70;99.90;;;;;;4915275;29;20036;-36
2023/07/30 09:19:35;;;;;;;10.82;4.65;;;20.60;99.90;;;;;;4914280;29;20115;-34
2023/07/30 09:22:05;;;;;;;10.65;4.80;;;20.50;99.90;;;;;;4896348;29;20040;-34
2023/07/30 09:24:30;;;;;;;14.45;5.25;;;20.70;99.90;;;;;;4900037;29;20048;-35
2023/07/30 09:27:02;;;;;;;8.48;4.30;;;20.90;99.90;;;;;;4906170;29;20052;-35
2023/07/30 09:29:27;;;;;;;8.75;4.13;;;21.00;99.90;;;;;;4906999;29;20084;-35
2023/07/30 09:31:54;;;;;;;10.30;4.75;;;21.10;99.90;;;;;;4912735;29;20363;-35
2023/07/30 09:34:21;;;;;;;9.15;4.03;;;21.00;99.90;;;;;;4910302;29;20068;-35
2023/07/30 09:36:50;;;;;;;11.20;4.30;;;20.80;99.90;;;;;;4907220;29;20487;-34
2023/07/30 09:39:26;;;;;;;8.15;3.75;;;20.50;99.90;;;;;;4917757;29;20049;-35
2023/07/30 09:41:53;;;;;;;10.20;4.07;;;20.20;99.90;;;;;;4915274;29;20036;-34
2023/07/30 09:44:20;;;;;;;7.95;3.47;;;19.90;99.90;;;;;;4911438;29;20447;-35
2023/07/30 09:46:48;;;;;;;11.57;4.40;;;19.70;99.90;;;;;;4889403;29;20065;-34
2023/07/30 09:49:15;;;;;;;10.18;4.35;;;19.60;99.90;;;;;;4907961;29;20040;-34
2023/07/30 09:51:40;;;;;;;8.50;3.97;;;19.40;99.90;;;;;;4912267;29;20040;-35
2023/07/30 09:54:07;;;;;;;13.43;4.90;;;19.30;99.90;;;;;;4910488;29;20388;-34
2023/07/30 09:56:37;;;;;;;9.05;4.60;;;19.20;99.90;;;;;;4893471;29;20044;-34
2023/07/30 09:59:04;;;;;;;14.48;5.35;;;19.10;99.90;;;;;;4888246;29;20506;-34
2023/07/30 10:01:32;;;;;;;12.10;4.88;;;19.00;99.90;;;;;;4918213;29;20071;-35
2023/07/30 10:03:58;;;;;;;12.10;5.82;;;18.90;99.90;;;;;;4913252;29;20056;-35
2023/07/30 10:06:27;;;;;;;9.20;4.70;;;18.70;99.90;;;;;;4903356;29;20036;-35
2023/07/30 10:08:57;;;;;;;5.97;3.10;;;18.50;99.90;;;;;;4910138;29;20032;-34
2023/07/30 10:11:23;;;;;;;8.52;3.10;;;18.40;99.90;;;;;;4911304;29;20142;-34
2023/07/30 10:13:49;;;;;;;5.15;2.40;;;18.30;99.90;;;;;;4912511;29;20521;-35
2023/07/30 10:16:15;;;;;;;7.05;2.05;;;18.30;99.90;;;;;;4905106;29;20044;-34
2023/07/30 10:18:42;;;;;;;5.35;2.53;;;18.50;99.90;;;;;;4912543;29;20493;-34
2023/07/30 10:21:10;;;;;;;4.72;2.40;;;18.70;99.90;;;;;;4911509;29;20059;-35
2023/07/30 10:23:45;;;;;;;6.55;2.35;;;19.20;99.90;;;;;;4894284;29;20046;-35
2023/07/30 10:26:11;;;;;;;5.30;2.28;;;19.40;99.90;;;;;;4907743;29;20335;-35
2023/07/30 10:28:39;;;;;;;4.15;1.90;;;19.40;99.90;;;;;;4898433;29;20044;-35
2023/07/30 10:31:10;;;;;;;6.05;2.47;;;19.20;99.90;;;;;;4910252;29;20032;-35
2023/07/30 10:33:45;;;;;;;5.30;2.10;;;18.80;99.90;;;;;;4907357;29;20040;-35
2023/07/30 10:36:11;;;;;;;6.50;2.22;;;18.50;99.90;;;;;;4913010;29;20040;-34
2023/07/30 10:38:39;;;;;;;8.45;2.80;;;18.20;99.90;;;;;;4913015;29;20091;-34
2023/07/30 10:41:08;;;;;;;5.50;2.60;;;17.70;99.90;;;;;;4915628;29;20036;-34
2023/07/30 10:43:41;;;;;;;7.35;2.85;;;17.40;99.90;;;;;;4917089;29;20048;-34
2023/07/30 10:46:12;;;;;;;9.25;3.20;;;17.20;99.90;;;;;;4916451;29;20051;-34
2023/07/30 10:48:40;;;;;;;8.48;3.58;;;17.00;99.90;;;;;;4910561;29;20060;-34
2023/07/30 10:51:08;;;;;;;6.28;3.08;;;16.80;99.90;;;;;;4913428;29;20179;-34
2023/07/30 10:53:36;;;;;;;8.00;3.08;;;16.80;99.90;;;;;;4909315;29;20036;-34
2023/07/30 10:56:06;;;;;;;10.27;3.80;;;17.00;99.90;;;;;;4905494;29;20085;-34
2023/07/30 10:58:34;;;;;;;9.15;3.55;;;17.40;99.90;;;;;;4893090;29;20044;-34
2023/07/30 11:01:05;;;;;;;10.10;3.78;;;17.80;99.90;;;;;;4913806;29;20067;-34
2023/07/30 11:03:31;;;;;;;8.00;3.40;;;18.40;99.90;;;;;;4915207;29;20048;-32
2023/07/30 11:05:57;;;;;;;7.43;3.72;;;18.90;99.90;;;;;;4910149;29;20506;-32
2023/07/30 11:08:42;;;;;;;12.23;4.07;;;19.60;99.90;;;;;;4908726;29;20076;-32
2023/07/30 11:11:10;;;;;;;7.93;2.70;;;20.50;99.90;;;;;;4911069;29;20077;-32
2023/07/30 11:13:41;;;;;;;12.13;3.70;;;20.60;99.90;;;;;;4911025;29;20070;-32
2023/07/30 11:16:10;;;;;;;10.57;3.63;;;20.60;99.90;;;;;;4912123;29;20040;-32
2023/07/30 11:18:38;;;;;;;8.75;2.90;;;20.30;99.90;;;;;;4920824;29;20517;-32
2023/07/30 11:21:08;;;;;;;5.28;2.60;;;20.70;99.90;;;;;;4913696;29;20040;-32
2023/07/30 11:23:35;;;;;;;7.05;2.25;;;20.90;99.90;;;;;;4904211;29;20049;-32
2023/07/30 11:26:03;;;;;;;7.60;2.03;;;20.60;99.90;;;;;;4906728;29;20033;-32
2023/07/30 11:28:33;;;;;;;7.45;2.50;;;20.60;99.90;;;;;;4907768;29;20056;-32
2023/07/30 11:31:07;;;;;;;7.28;2.42;;;20.70;99.90;;;;;;4901746;29;20051;-33
2023/07/30 11:33:39;;;;;;;6.82;2.10;;;21.10;99.90;;;;;;4914472;29;20151;-34
2023/07/30 11:36:07;;;;;;;7.72;2.28;;;21.80;99.90;;;;;;4900570;29;20540;-33
2023/07/30 11:38:34;;;;;;;3.60;1.88;;;22.10;99.90;;;;;;4907712;29;20032;-33
2023/07/30 11:41:01;;;;;;;7.80;2.42;;;22.50;99.90;;;;;;4903234;29;20427;-33
2023/07/30 11:43:27;;;;;;;5.90;2.00;;;22.90;99.90;;;;;;4907679;29;20050;-33
2023/07/30 11:46:08;;;;;;;6.50;2.10;;;23.30;99.90;;;;;;4908801;29;20406;-34
2023/07/30 11:48:35;;;;;;;3.45;1.85;;;23.60;99.90;;;;;;4909360;29;20111;-34
2023/07/30 11:51:01;;;;;;;4.38;1.55;;;23.90;99.90;;;;;;4907163;29;20039;-34
2023/07/30 11:53:49;;;;;;;4.32;1.73;;;24.20;99.90;;;;;;4910536;29;20040;-34
2023/07/30 11:56:26;;;;;;;6.07;1.77;;;24.10;99.90;;;;;;4909025;29;20044;-34
2023/07/30 11:59:01;;;;;;;5.90;1.60;;;24.20;99.90;;;;;;4910400;29;20501;-34
2023/07/30 12:01:29;;;;;;;6.05;1.95;;;24.50;99.90;;;;;;4916807;29;20115;-34
2023/07/30 12:03:56;;;;;;;5.75;1.55;;;24.70;99.90;;;;;;4905518;29;20164;-34
2023/07/30 12:06:25;;;;;;;5.18;1.60;;;24.80;99.90;;;;;;4906561;29;20611;-34
2023/07/30 12:08:51;;;;;;;5.63;1.60;;;25.00;99.90;;;;;;4908790;29;20394;-34
2023/07/30 12:11:21;;;;;;;6.60;1.70;;;25.20;99.90;;;;;;4910637;29;20036;-35
2023/07/30 12:13:47;;;;;;;5.18;1.55;;;25.30;99.90;;;;;;4912916;29;20176;-35
2023/07/30 12:16:13;;;;;;;3.38;1.60;;;25.40;99.90;;;;;;4896444;29;20073;-35
2023/07/30 12:18:39;;;;;;;4.30;1.63;;;25.40;99.90;;;;;;4913560;29;20051;-34
2023/07/30 12:21:10;;;;;;;4.00;1.50;;;25.30;99.90;;;;;;4911240;29;20040;-34
2023/07/30 12:23:37;;;;;;;4.95;1.45;;;24.60;99.90;;;;;;4915184;29;20041;-34
2023/07/30 12:26:05;;;;;;;6.05;1.60;;;24.00;99.90;;;;;;4911722;29;20044;-34
2023/07/30 12:28:33;;;;;;;4.60;1.63;;;23.70;99.90;;;;;;4912873;29;20048;-34
2023/07/30 12:31:00;;;;;;;5.30;1.83;;;23.70;99.90;;;;;;4909943;29;20077;-34
2023/07/30 12:33:25;;;;;;;4.68;1.50;;;23.80;99.90;;;;;;4913447;29;20040;-34
2023/07/30 12:35:51;;;;;;;6.25;1.98;;;23.60;99.90;;;;;;4895029;29;20477;-34
2023/07/30 12:38:17;;;;;;;5.28;1.73;;;23.50;99.90;;;;;;4915515;29;20043;-34